sensor_id;sensor_type;location;lat;lon;timestamp;P1;durP1;ratioP1;P2;durP2;ratioP2
47856;SDS011;33618;49.972;8.242;2023-03-04T00:01:28;53.05;;;18.77;;
47856;SDS011;33618;49.972;8.242;2023-03-04T00:03:55;55.30;;;18.58;;
47856;SDS011;33618;49.972;8.242;2023-03-04T00:06:22;47.92;;;17.05;;
47856;SDS011;33618;49.972;8.242;2023-03-04T00:08:49;53.58;;;17.73;;
47856;SDS011;33618;49.972;8.242;2023-03-04T00:11:16;50.97;;;17.80;;
47856;SDS011;33618;49.972;8.242;2023-03-04T00:13:43;49.00;;;17.60;;
47856;SDS011;33618;49.972;8.242;2023-03-04T00:16:10;53.10;;;18.15;;
47856;SDS011;33618;49.972;8.242;2023-03-04T00:18:37;47.20;;;15.85;;
47856;SDS011;33618;49.972;8.242;2023-03-04T00:21:04;50.95;;;17.02;;
47856;SDS011;33618;49.972;8.242;2023-03-04T00:23:32;54.45;;;18.02;;
47856;SDS011;33618;49.972;8.242;2023-03-04T00:25:58;55.55;;;17.60;;
47856;SDS011;33618;49.972;8.242;2023-03-04T00:28:25;49.47;;;17.20;;
47856;SDS011;33618;49.972;8.242;2023-03-04T00:30:53;51.00;;;17.40;;
47856;SDS011;33618;49.972;8.242;2023-03-04T00:33:20;53.05;;;18.25;;
47856;SDS011;33618;49.972;8.242;2023-03-04T00:35:47;49.45;;;17.42;;
47856;SDS011;33618;49.972;8.242;2023-03-04T00:38:14;49.90;;;17.50;;
47856;SDS011;33618;49.972;8.242;2023-03-04T00:40:41;50.15;;;17.15;;
47856;SDS011;33618;49.972;8.242;2023-03-04T00:43:08;53.80;;;18.30;;
47856;SDS011;33618;49.972;8.242;2023-03-04T00:45:35;53.13;;;17.73;;
47856;SDS011;33618;49.972;8.242;2023-03-04T00:48:02;51.75;;;18.85;;
47856;SDS011;33618;49.972;8.242;2023-03-04T00:50:29;52.13;;;17.15;;
47856;SDS011;33618;49.972;8.242;2023-03-04T00:52:57;55.13;;;18.13;;
47856;SDS011;33618;49.972;8.242;2023-03-04T00:55:23;49.15;;;17.17;;
47856;SDS011;33618;49.972;8.242;2023-03-04T00:57:51;54.33;;;17.67;;
47856;SDS011;33618;49.972;8.242;2023-03-04T01:00:18;47.80;;;17.35;;
47856;SDS011;33618;49.972;8.242;2023-03-04T01:02:45;55.42;;;17.70;;
47856;SDS011;33618;49.972;8.242;2023-03-04T01:05:12;52.47;;;17.48;;
47856;SDS011;33618;49.972;8.242;2023-03-04T01:07:39;54.55;;;17.88;;
47856;SDS011;33618;49.972;8.242;2023-03-04T01:10:07;49.90;;;18.27;;
47856;SDS011;33618;49.972;8.242;2023-03-04T01:12:35;52.10;;;17.30;;
47856;SDS011;33618;49.972;8.242;2023-03-04T01:15:02;53.85;;;19.05;;
47856;SDS011;33618;49.972;8.242;2023-03-04T01:17:30;52.47;;;17.10;;
47856;SDS011;33618;49.972;8.242;2023-03-04T01:19:57;55.55;;;18.48;;
47856;SDS011;33618;49.972;8.242;2023-03-04T01:22:23;46.85;;;17.27;;
47856;SDS011;33618;49.972;8.242;2023-03-04T01:24:50;54.33;;;17.88;;
47856;SDS011;33618;49.972;8.242;2023-03-04T01:27:17;51.30;;;18.60;;
47856;SDS011;33618;49.972;8.242;2023-03-04T01:29:44;50.67;;;17.55;;
47856;SDS011;33618;49.972;8.242;2023-03-04T01:32:11;50.40;;;18.23;;
47856;SDS011;33618;49.972;8.242;2023-03-04T01:34:38;50.28;;;16.95;;
47856;SDS011;33618;49.972;8.242;2023-03-04T01:37:06;50.55;;;17.88;;
47856;SDS011;33618;49.972;8.242;2023-03-04T01:39:33;55.70;;;17.35;;
47856;SDS011;33618;49.972;8.242;2023-03-04T01:42:00;47.53;;;16.25;;
47856;SDS011;33618;49.972;8.242;2023-03-04T01:44:27;52.95;;;17.10;;
47856;SDS011;33618;49.972;8.242;2023-03-04T01:46:54;49.97;;;16.50;;
47856;SDS011;33618;49.972;8.242;2023-03-04T01:49:22;50.22;;;17.38;;
47856;SDS011;33618;49.972;8.242;2023-03-04T01:51:50;46.80;;;16.95;;
47856;SDS011;33618;49.972;8.242;2023-03-04T01:54:20;48.20;;;16.38;;
47856;SDS011;33618;49.972;8.242;2023-03-04T01:56:48;50.05;;;18.08;;
47856;SDS011;33618;49.972;8.242;2023-03-04T01:59:23;46.97;;;16.73;;
47856;SDS011;33618;49.972;8.242;2023-03-04T02:01:52;55.10;;;17.80;;
47856;SDS011;33618;49.972;8.242;2023-03-04T02:04:25;52.60;;;17.65;;
47856;SDS011;33618;49.972;8.242;2023-03-04T02:06:54;52.63;;;17.60;;
47856;SDS011;33618;49.972;8.242;2023-03-04T02:09:23;61.05;;;18.52;;
47856;SDS011;33618;49.972;8.242;2023-03-04T02:11:50;54.25;;;16.95;;
47856;SDS011;33618;49.972;8.242;2023-03-04T02:14:18;53.95;;;17.35;;
47856;SDS011;33618;49.972;8.242;2023-03-04T02:16:47;54.33;;;17.20;;
47856;SDS011;33618;49.972;8.242;2023-03-04T02:22:10;53.60;;;17.27;;
47856;SDS011;33618;49.972;8.242;2023-03-04T02:24:49;49.22;;;16.48;;
47856;SDS011;33618;49.972;8.242;2023-03-04T02:27:32;53.15;;;17.45;;
47856;SDS011;33618;49.972;8.242;2023-03-04T02:29:59;51.25;;;17.30;;
47856;SDS011;33618;49.972;8.242;2023-03-04T02:32:26;52.42;;;17.48;;
47856;SDS011;33618;49.972;8.242;2023-03-04T02:34:53;50.72;;;17.27;;
47856;SDS011;33618;49.972;8.242;2023-03-04T02:37:21;48.50;;;17.20;;
47856;SDS011;33618;49.972;8.242;2023-03-04T02:39:48;49.70;;;17.27;;
47856;SDS011;33618;49.972;8.242;2023-03-04T02:42:16;50.35;;;17.52;;
47856;SDS011;33618;49.972;8.242;2023-03-04T02:44:44;46.08;;;16.55;;
47856;SDS011;33618;49.972;8.242;2023-03-04T02:47:14;46.08;;;15.68;;
47856;SDS011;33618;49.972;8.242;2023-03-04T02:49:45;49.72;;;16.67;;
47856;SDS011;33618;49.972;8.242;2023-03-04T02:52:20;49.90;;;16.42;;
47856;SDS011;33618;49.972;8.242;2023-03-04T02:54:50;52.67;;;18.08;;
47856;SDS011;33618;49.972;8.242;2023-03-04T02:57:17;48.83;;;17.38;;
47856;SDS011;33618;49.972;8.242;2023-03-04T02:59:44;50.97;;;17.08;;
47856;SDS011;33618;49.972;8.242;2023-03-04T03:02:11;45.72;;;16.73;;
47856;SDS011;33618;49.972;8.242;2023-03-04T03:04:38;54.45;;;18.65;;
47856;SDS011;33618;49.972;8.242;2023-03-04T03:07:05;47.15;;;17.60;;
47856;SDS011;33618;49.972;8.242;2023-03-04T03:09:33;51.17;;;17.83;;
47856;SDS011;33618;49.972;8.242;2023-03-04T03:12:00;50.95;;;17.15;;
47856;SDS011;33618;49.972;8.242;2023-03-04T03:14:33;46.03;;;17.35;;
47856;SDS011;33618;49.972;8.242;2023-03-04T03:17:00;55.13;;;18.20;;
47856;SDS011;33618;49.972;8.242;2023-03-04T03:19:27;53.88;;;17.45;;
47856;SDS011;33618;49.972;8.242;2023-03-04T03:21:53;48.78;;;17.92;;
47856;SDS011;33618;49.972;8.242;2023-03-04T03:24:20;45.72;;;16.35;;
47856;SDS011;33618;49.972;8.242;2023-03-04T03:26:47;48.15;;;17.45;;
47856;SDS011;33618;49.972;8.242;2023-03-04T03:29:14;47.88;;;17.00;;
47856;SDS011;33618;49.972;8.242;2023-03-04T03:31:41;50.58;;;17.50;;
47856;SDS011;33618;49.972;8.242;2023-03-04T03:34:09;47.97;;;18.58;;
47856;SDS011;33618;49.972;8.242;2023-03-04T03:36:35;45.45;;;16.90;;
47856;SDS011;33618;49.972;8.242;2023-03-04T03:39:02;52.40;;;17.77;;
47856;SDS011;33618;49.972;8.242;2023-03-04T03:41:29;51.17;;;16.98;;
47856;SDS011;33618;49.972;8.242;2023-03-04T03:43:56;50.38;;;18.50;;
47856;SDS011;33618;49.972;8.242;2023-03-04T03:46:23;50.88;;;18.35;;
47856;SDS011;33618;49.972;8.242;2023-03-04T03:48:50;51.38;;;18.00;;
47856;SDS011;33618;49.972;8.242;2023-03-04T03:51:17;50.42;;;18.17;;
47856;SDS011;33618;49.972;8.242;2023-03-04T03:53:44;56.00;;;19.17;;
47856;SDS011;33618;49.972;8.242;2023-03-04T03:56:11;52.33;;;18.42;;
47856;SDS011;33618;49.972;8.242;2023-03-04T03:58:37;50.35;;;17.60;;
47856;SDS011;33618;49.972;8.242;2023-03-04T04:01:04;47.97;;;17.77;;
47856;SDS011;33618;49.972;8.242;2023-03-04T04:03:31;50.17;;;18.13;;
47856;SDS011;33618;49.972;8.242;2023-03-04T04:05:58;51.97;;;18.38;;
47856;SDS011;33618;49.972;8.242;2023-03-04T04:08:25;46.85;;;17.15;;
47856;SDS011;33618;49.972;8.242;2023-03-04T04:10:52;52.00;;;18.27;;
47856;SDS011;33618;49.972;8.242;2023-03-04T04:13:19;52.42;;;17.75;;
47856;SDS011;33618;49.972;8.242;2023-03-04T04:15:46;50.40;;;17.80;;
47856;SDS011;33618;49.972;8.242;2023-03-04T04:18:13;47.58;;;16.88;;
47856;SDS011;33618;49.972;8.242;2023-03-04T04:20:40;44.17;;;17.40;;
47856;SDS011;33618;49.972;8.242;2023-03-04T04:23:07;46.33;;;17.70;;
47856;SDS011;33618;49.972;8.242;2023-03-04T04:25:34;48.95;;;18.48;;
47856;SDS011;33618;49.972;8.242;2023-03-04T04:28:01;47.95;;;17.67;;
47856;SDS011;33618;49.972;8.242;2023-03-04T04:30:28;39.13;;;17.23;;
47856;SDS011;33618;49.972;8.242;2023-03-04T04:32:55;41.35;;;17.00;;
47856;SDS011;33618;49.972;8.242;2023-03-04T04:35:22;44.78;;;17.55;;
47856;SDS011;33618;49.972;8.242;2023-03-04T04:37:49;41.30;;;17.08;;
47856;SDS011;33618;49.972;8.242;2023-03-04T04:40:16;41.17;;;17.98;;
47856;SDS011;33618;49.972;8.242;2023-03-04T04:42:43;42.47;;;18.13;;
47856;SDS011;33618;49.972;8.242;2023-03-04T04:45:10;46.75;;;18.75;;
47856;SDS011;33618;49.972;8.242;2023-03-04T04:47:37;45.00;;;19.23;;
47856;SDS011;33618;49.972;8.242;2023-03-04T04:50:05;40.83;;;18.45;;
47856;SDS011;33618;49.972;8.242;2023-03-04T04:52:32;44.60;;;18.30;;
47856;SDS011;33618;49.972;8.242;2023-03-04T04:54:59;42.55;;;18.42;;
47856;SDS011;33618;49.972;8.242;2023-03-04T04:57:26;44.83;;;18.70;;
47856;SDS011;33618;49.972;8.242;2023-03-04T04:59:53;41.50;;;19.25;;
47856;SDS011;33618;49.972;8.242;2023-03-04T05:02:20;47.38;;;18.63;;
47856;SDS011;33618;49.972;8.242;2023-03-04T05:04:47;37.72;;;18.13;;
47856;SDS011;33618;49.972;8.242;2023-03-04T05:07:14;45.03;;;18.23;;
47856;SDS011;33618;49.972;8.242;2023-03-04T05:09:41;40.75;;;18.42;;
47856;SDS011;33618;49.972;8.242;2023-03-04T05:12:08;42.38;;;19.10;;
47856;SDS011;33618;49.972;8.242;2023-03-04T05:14:35;44.03;;;18.70;;
47856;SDS011;33618;49.972;8.242;2023-03-04T05:17:02;49.67;;;19.58;;
47856;SDS011;33618;49.972;8.242;2023-03-04T05:19:29;43.25;;;19.40;;
47856;SDS011;33618;49.972;8.242;2023-03-04T05:21:56;44.55;;;19.73;;
47856;SDS011;33618;49.972;8.242;2023-03-04T05:24:23;42.65;;;19.30;;
47856;SDS011;33618;49.972;8.242;2023-03-04T05:26:50;40.85;;;18.92;;
47856;SDS011;33618;49.972;8.242;2023-03-04T05:29:17;43.90;;;19.85;;
47856;SDS011;33618;49.972;8.242;2023-03-04T05:31:44;39.70;;;19.00;;
47856;SDS011;33618;49.972;8.242;2023-03-04T05:34:10;43.00;;;20.00;;
47856;SDS011;33618;49.972;8.242;2023-03-04T05:36:38;45.60;;;20.27;;
47856;SDS011;33618;49.972;8.242;2023-03-04T05:39:05;45.05;;;19.33;;
47856;SDS011;33618;49.972;8.242;2023-03-04T05:41:31;44.47;;;20.00;;
47856;SDS011;33618;49.972;8.242;2023-03-04T05:43:58;44.65;;;18.70;;
47856;SDS011;33618;49.972;8.242;2023-03-04T05:46:25;44.10;;;19.27;;
47856;SDS011;33618;49.972;8.242;2023-03-04T05:48:52;39.67;;;20.05;;
47856;SDS011;33618;49.972;8.242;2023-03-04T05:51:20;45.05;;;19.63;;
47856;SDS011;33618;49.972;8.242;2023-03-04T05:53:47;41.13;;;19.17;;
47856;SDS011;33618;49.972;8.242;2023-03-04T05:56:15;44.30;;;19.33;;
47856;SDS011;33618;49.972;8.242;2023-03-04T05:58:44;38.40;;;18.75;;
47856;SDS011;33618;49.972;8.242;2023-03-04T06:01:14;41.20;;;17.45;;
47856;SDS011;33618;49.972;8.242;2023-03-04T06:03:42;39.65;;;17.63;;
47856;SDS011;33618;49.972;8.242;2023-03-04T06:06:09;39.78;;;16.08;;
47856;SDS011;33618;49.972;8.242;2023-03-04T06:08:36;37.70;;;16.98;;
47856;SDS011;33618;49.972;8.242;2023-03-04T06:11:03;35.90;;;16.25;;
47856;SDS011;33618;49.972;8.242;2023-03-04T06:13:31;39.25;;;16.75;;
47856;SDS011;33618;49.972;8.242;2023-03-04T06:15:58;39.13;;;16.80;;
47856;SDS011;33618;49.972;8.242;2023-03-04T06:18:26;36.78;;;17.02;;
47856;SDS011;33618;49.972;8.242;2023-03-04T06:20:55;39.15;;;17.15;;
47856;SDS011;33618;49.972;8.242;2023-03-04T06:23:24;39.30;;;17.20;;
47856;SDS011;33618;49.972;8.242;2023-03-04T06:25:56;43.50;;;17.55;;
47856;SDS011;33618;49.972;8.242;2023-03-04T06:28:24;34.45;;;16.52;;
47856;SDS011;33618;49.972;8.242;2023-03-04T06:30:52;38.72;;;16.30;;
47856;SDS011;33618;49.972;8.242;2023-03-04T06:33:20;36.85;;;15.93;;
47856;SDS011;33618;49.972;8.242;2023-03-04T06:35:47;36.70;;;15.35;;
47856;SDS011;33618;49.972;8.242;2023-03-04T06:38:18;34.33;;;16.00;;
47856;SDS011;33618;49.972;8.242;2023-03-04T06:40:45;38.72;;;15.98;;
47856;SDS011;33618;49.972;8.242;2023-03-04T06:43:12;31.80;;;15.27;;
47856;SDS011;33618;49.972;8.242;2023-03-04T06:45:39;37.95;;;14.20;;
47856;SDS011;33618;49.972;8.242;2023-03-04T06:48:06;36.35;;;15.20;;
47856;SDS011;33618;49.972;8.242;2023-03-04T06:50:33;35.63;;;15.07;;
47856;SDS011;33618;49.972;8.242;2023-03-04T06:52:59;35.30;;;14.30;;
47856;SDS011;33618;49.972;8.242;2023-03-04T06:55:27;37.22;;;14.73;;
47856;SDS011;33618;49.972;8.242;2023-03-04T06:57:54;36.88;;;14.63;;
47856;SDS011;33618;49.972;8.242;2023-03-04T07:00:21;42.45;;;14.55;;
47856;SDS011;33618;49.972;8.242;2023-03-04T07:02:49;33.00;;;14.23;;
47856;SDS011;33618;49.972;8.242;2023-03-04T07:05:20;39.47;;;14.27;;
47856;SDS011;33618;49.972;8.242;2023-03-04T07:07:47;34.30;;;14.07;;
47856;SDS011;33618;49.972;8.242;2023-03-04T07:10:15;34.90;;;13.07;;
47856;SDS011;33618;49.972;8.242;2023-03-04T07:12:44;30.33;;;12.30;;
47856;SDS011;33618;49.972;8.242;2023-03-04T07:15:12;27.02;;;12.88;;
47856;SDS011;33618;49.972;8.242;2023-03-04T07:17:39;32.60;;;13.10;;
47856;SDS011;33618;49.972;8.242;2023-03-04T07:20:06;26.35;;;12.18;;
47856;SDS011;33618;49.972;8.242;2023-03-04T07:22:33;33.65;;;12.30;;
47856;SDS011;33618;49.972;8.242;2023-03-04T07:25:00;26.40;;;11.73;;
47856;SDS011;33618;49.972;8.242;2023-03-04T07:27:27;32.38;;;13.30;;
47856;SDS011;33618;49.972;8.242;2023-03-04T07:29:54;30.02;;;11.95;;
47856;SDS011;33618;49.972;8.242;2023-03-04T07:32:21;29.77;;;12.40;;
47856;SDS011;33618;49.972;8.242;2023-03-04T07:34:48;32.65;;;12.95;;
47856;SDS011;33618;49.972;8.242;2023-03-04T07:37:16;26.42;;;12.35;;
47856;SDS011;33618;49.972;8.242;2023-03-04T07:39:43;26.83;;;11.40;;
47856;SDS011;33618;49.972;8.242;2023-03-04T07:42:10;29.92;;;11.15;;
47856;SDS011;33618;49.972;8.242;2023-03-04T07:44:37;26.38;;;11.50;;
47856;SDS011;33618;49.972;8.242;2023-03-04T07:47:04;25.40;;;10.90;;
47856;SDS011;33618;49.972;8.242;2023-03-04T07:49:31;25.08;;;11.27;;
47856;SDS011;33618;49.972;8.242;2023-03-04T07:52:01;37.78;;;13.00;;
47856;SDS011;33618;49.972;8.242;2023-03-04T07:54:29;30.27;;;12.13;;
47856;SDS011;33618;49.972;8.242;2023-03-04T07:56:56;24.77;;;11.27;;
47856;SDS011;33618;49.972;8.242;2023-03-04T07:59:23;24.20;;;10.80;;
47856;SDS011;33618;49.972;8.242;2023-03-04T08:01:50;25.58;;;11.20;;
47856;SDS011;33618;49.972;8.242;2023-03-04T08:04:17;31.10;;;11.88;;
47856;SDS011;33618;49.972;8.242;2023-03-04T08:06:44;28.27;;;11.32;;
47856;SDS011;33618;49.972;8.242;2023-03-04T08:09:11;32.22;;;11.35;;
47856;SDS011;33618;49.972;8.242;2023-03-04T08:11:39;23.90;;;10.88;;
47856;SDS011;33618;49.972;8.242;2023-03-04T08:14:06;30.80;;;11.68;;
47856;SDS011;33618;49.972;8.242;2023-03-04T08:16:34;27.02;;;10.65;;
47856;SDS011;33618;49.972;8.242;2023-03-04T08:19:01;26.90;;;11.38;;
47856;SDS011;33618;49.972;8.242;2023-03-04T08:21:30;26.00;;;10.52;;
47856;SDS011;33618;49.972;8.242;2023-03-04T08:23:58;28.10;;;10.77;;
47856;SDS011;33618;49.972;8.242;2023-03-04T08:26:29;28.60;;;11.43;;
47856;SDS011;33618;49.972;8.242;2023-03-04T08:28:59;25.67;;;10.65;;
47856;SDS011;33618;49.972;8.242;2023-03-04T08:31:28;27.80;;;11.65;;
47856;SDS011;33618;49.972;8.242;2023-03-04T08:33:55;28.98;;;10.18;;
47856;SDS011;33618;49.972;8.242;2023-03-04T08:36:22;22.05;;;9.85;;
47856;SDS011;33618;49.972;8.242;2023-03-04T08:38:49;32.10;;;10.85;;
47856;SDS011;33618;49.972;8.242;2023-03-04T08:41:16;28.70;;;9.75;;
47856;SDS011;33618;49.972;8.242;2023-03-04T08:43:43;27.98;;;9.98;;
47856;SDS011;33618;49.972;8.242;2023-03-04T08:46:10;26.23;;;10.70;;
47856;SDS011;33618;49.972;8.242;2023-03-04T08:48:37;25.90;;;10.65;;
47856;SDS011;33618;49.972;8.242;2023-03-04T08:51:08;25.50;;;10.30;;
47856;SDS011;33618;49.972;8.242;2023-03-04T08:53:37;25.52;;;9.88;;
47856;SDS011;33618;49.972;8.242;2023-03-04T08:56:05;26.50;;;10.55;;
47856;SDS011;33618;49.972;8.242;2023-03-04T08:58:33;21.15;;;10.05;;
47856;SDS011;33618;49.972;8.242;2023-03-04T09:01:00;26.77;;;9.90;;
47856;SDS011;33618;49.972;8.242;2023-03-04T09:03:28;26.48;;;9.63;;
47856;SDS011;33618;49.972;8.242;2023-03-04T09:05:55;22.58;;;10.52;;
47856;SDS011;33618;49.972;8.242;2023-03-04T09:08:22;24.77;;;10.15;;
47856;SDS011;33618;49.972;8.242;2023-03-04T09:10:51;26.77;;;9.30;;
47856;SDS011;33618;49.972;8.242;2023-03-04T09:13:20;23.67;;;9.80;;
47856;SDS011;33618;49.972;8.242;2023-03-04T09:15:51;24.35;;;8.90;;
47856;SDS011;33618;49.972;8.242;2023-03-04T09:18:19;26.30;;;9.25;;
47856;SDS011;33618;49.972;8.242;2023-03-04T09:20:48;20.48;;;8.90;;
47856;SDS011;33618;49.972;8.242;2023-03-04T09:23:15;20.40;;;8.52;;
47856;SDS011;33618;49.972;8.242;2023-03-04T09:25:43;20.90;;;7.78;;
47856;SDS011;33618;49.972;8.242;2023-03-04T09:28:12;21.05;;;7.68;;
47856;SDS011;33618;49.972;8.242;2023-03-04T09:30:40;19.30;;;8.15;;
47856;SDS011;33618;49.972;8.242;2023-03-04T09:33:07;20.27;;;8.15;;
47856;SDS011;33618;49.972;8.242;2023-03-04T09:35:34;28.30;;;8.18;;
47856;SDS011;33618;49.972;8.242;2023-03-04T09:38:02;22.35;;;7.40;;
47856;SDS011;33618;49.972;8.242;2023-03-04T09:40:36;19.08;;;7.78;;
47856;SDS011;33618;49.972;8.242;2023-03-04T09:43:23;20.70;;;7.78;;
47856;SDS011;33618;49.972;8.242;2023-03-04T09:45:56;17.10;;;7.25;;
47856;SDS011;33618;49.972;8.242;2023-03-04T09:48:47;29.35;;;7.90;;
47856;SDS011;33618;49.972;8.242;2023-03-04T09:51:30;19.23;;;7.82;;
47856;SDS011;33618;49.972;8.242;2023-03-04T09:54:06;15.40;;;7.07;;
47856;SDS011;33618;49.972;8.242;2023-03-04T09:56:37;21.70;;;7.30;;
47856;SDS011;33618;49.972;8.242;2023-03-04T10:01:40;19.42;;;7.07;;
47856;SDS011;33618;49.972;8.242;2023-03-04T10:06:47;19.70;;;7.40;;
47856;SDS011;33618;49.972;8.242;2023-03-04T10:09:24;16.77;;;6.95;;
47856;SDS011;33618;49.972;8.242;2023-03-04T10:12:00;17.80;;;6.85;;
47856;SDS011;33618;49.972;8.242;2023-03-04T10:19:55;19.98;;;7.60;;
47856;SDS011;33618;49.972;8.242;2023-03-04T10:22:34;17.67;;;7.65;;
47856;SDS011;33618;49.972;8.242;2023-03-04T10:25:17;15.02;;;6.35;;
47856;SDS011;33618;49.972;8.242;2023-03-04T10:33:22;18.33;;;7.35;;
47856;SDS011;33618;49.972;8.242;2023-03-04T10:35:53;22.00;;;7.28;;
47856;SDS011;33618;49.972;8.242;2023-03-04T10:38:31;18.35;;;6.90;;
47856;SDS011;33618;49.972;8.242;2023-03-04T10:41:10;14.98;;;6.15;;
47856;SDS011;33618;49.972;8.242;2023-03-04T10:43:50;21.35;;;6.38;;
47856;SDS011;33618;49.972;8.242;2023-03-04T10:46:41;14.68;;;6.45;;
47856;SDS011;33618;49.972;8.242;2023-03-04T10:49:10;18.10;;;7.53;;
47856;SDS011;33618;49.972;8.242;2023-03-04T10:54:27;16.42;;;6.40;;
47856;SDS011;33618;49.972;8.242;2023-03-04T10:57:20;14.18;;;6.57;;
47856;SDS011;33618;49.972;8.242;2023-03-04T11:00:01;13.93;;;6.30;;
47856;SDS011;33618;49.972;8.242;2023-03-04T11:02:45;15.05;;;5.63;;
47856;SDS011;33618;49.972;8.242;2023-03-04T11:16:20;16.50;;;6.30;;
47856;SDS011;33618;49.972;8.242;2023-03-04T11:18:52;14.10;;;5.90;;
47856;SDS011;33618;49.972;8.242;2023-03-04T11:21:24;15.55;;;6.60;;
47856;SDS011;33618;49.972;8.242;2023-03-04T11:24:00;15.52;;;6.85;;
47856;SDS011;33618;49.972;8.242;2023-03-04T11:26:33;14.43;;;5.85;;
47856;SDS011;33618;49.972;8.242;2023-03-04T11:29:20;19.15;;;6.38;;
47856;SDS011;33618;49.972;8.242;2023-03-04T11:31:49;14.52;;;6.95;;
47856;SDS011;33618;49.972;8.242;2023-03-04T11:39:48;14.82;;;6.45;;
47856;SDS011;33618;49.972;8.242;2023-03-04T11:45:10;17.05;;;6.63;;
47856;SDS011;33618;49.972;8.242;2023-03-04T11:51:18;13.77;;;5.18;;
47856;SDS011;33618;49.972;8.242;2023-03-04T11:54:00;11.75;;;5.20;;
47856;SDS011;33618;49.972;8.242;2023-03-04T11:56:45;11.75;;;5.03;;
47856;SDS011;33618;49.972;8.242;2023-03-04T11:59:29;13.45;;;5.63;;
47856;SDS011;33618;49.972;8.242;2023-03-04T12:10:35;9.90;;;4.75;;
47856;SDS011;33618;49.972;8.242;2023-03-04T12:21:15;9.88;;;4.72;;
47856;SDS011;33618;49.972;8.242;2023-03-04T12:26:38;9.60;;;5.18;;
47856;SDS011;33618;49.972;8.242;2023-03-04T12:32:02;7.95;;;4.63;;
47856;SDS011;33618;49.972;8.242;2023-03-04T12:35:02;21.63;;;5.68;;
47856;SDS011;33618;49.972;8.242;2023-03-04T12:37:51;10.40;;;4.70;;
47856;SDS011;33618;49.972;8.242;2023-03-04T12:43:33;11.50;;;4.25;;
47856;SDS011;33618;49.972;8.242;2023-03-04T12:46:14;11.65;;;6.32;;
47856;SDS011;33618;49.972;8.242;2023-03-04T12:49:21;9.57;;;4.22;;
47856;SDS011;33618;49.972;8.242;2023-03-04T12:52:12;9.15;;;4.85;;
47856;SDS011;33618;49.972;8.242;2023-03-04T12:54:50;9.20;;;4.82;;
47856;SDS011;33618;49.972;8.242;2023-03-04T12:57:24;8.93;;;5.15;;
47856;SDS011;33618;49.972;8.242;2023-03-04T13:10:41;10.30;;;4.40;;
47856;SDS011;33618;49.972;8.242;2023-03-04T13:16:06;8.70;;;4.63;;
47856;SDS011;33618;49.972;8.242;2023-03-04T13:19:02;7.55;;;4.10;;
47856;SDS011;33618;49.972;8.242;2023-03-04T13:24:57;7.85;;;4.03;;
47856;SDS011;33618;49.972;8.242;2023-03-04T13:43:59;10.05;;;5.55;;
47856;SDS011;33618;49.972;8.242;2023-03-04T13:46:28;15.57;;;5.80;;
47856;SDS011;33618;49.972;8.242;2023-03-04T13:49:05;8.50;;;4.95;;
47856;SDS011;33618;49.972;8.242;2023-03-04T13:51:42;11.70;;;4.82;;
47856;SDS011;33618;49.972;8.242;2023-03-04T13:54:30;11.05;;;5.00;;
47856;SDS011;33618;49.972;8.242;2023-03-04T13:57:17;8.10;;;4.97;;
47856;SDS011;33618;49.972;8.242;2023-03-04T13:59:46;8.80;;;4.30;;
47856;SDS011;33618;49.972;8.242;2023-03-04T14:02:16;10.27;;;5.15;;
47856;SDS011;33618;49.972;8.242;2023-03-04T14:04:58;7.97;;;4.20;;
47856;SDS011;33618;49.972;8.242;2023-03-04T14:07:33;9.00;;;4.55;;
47856;SDS011;33618;49.972;8.242;2023-03-04T14:12:51;10.30;;;4.32;;
47856;SDS011;33618;49.972;8.242;2023-03-04T14:15:22;7.95;;;4.53;;
47856;SDS011;33618;49.972;8.242;2023-03-04T14:17:54;8.18;;;4.75;;
47856;SDS011;33618;49.972;8.242;2023-03-04T14:22:54;10.10;;;4.50;;
47856;SDS011;33618;49.972;8.242;2023-03-04T14:25:27;7.28;;;4.28;;
47856;SDS011;33618;49.972;8.242;2023-03-04T14:28:12;10.63;;;4.90;;
47856;SDS011;33618;49.972;8.242;2023-03-04T14:30:42;9.55;;;4.45;;
47856;SDS011;33618;49.972;8.242;2023-03-04T14:33:21;9.43;;;4.30;;
47856;SDS011;33618;49.972;8.242;2023-03-04T14:35:58;10.15;;;4.50;;
47856;SDS011;33618;49.972;8.242;2023-03-04T14:38:31;10.85;;;4.88;;
47856;SDS011;33618;49.972;8.242;2023-03-04T14:43:27;13.65;;;4.93;;
47856;SDS011;33618;49.972;8.242;2023-03-04T14:45:56;9.20;;;4.68;;
47856;SDS011;33618;49.972;8.242;2023-03-04T14:48:27;9.63;;;5.13;;
47856;SDS011;33618;49.972;8.242;2023-03-04T14:50:59;12.40;;;5.40;;
47856;SDS011;33618;49.972;8.242;2023-03-04T14:53:28;10.95;;;5.00;;
47856;SDS011;33618;49.972;8.242;2023-03-04T14:56:02;13.88;;;4.97;;
47856;SDS011;33618;49.972;8.242;2023-03-04T14:58:32;13.93;;;5.28;;
47856;SDS011;33618;49.972;8.242;2023-03-04T15:03:40;11.75;;;6.07;;
47856;SDS011;33618;49.972;8.242;2023-03-04T15:06:29;8.25;;;4.75;;
47856;SDS011;33618;49.972;8.242;2023-03-04T15:09:02;12.98;;;5.18;;
47856;SDS011;33618;49.972;8.242;2023-03-04T15:14:44;12.75;;;5.20;;
47856;SDS011;33618;49.972;8.242;2023-03-04T15:25:07;12.05;;;4.88;;
47856;SDS011;33618;49.972;8.242;2023-03-04T15:27:40;7.28;;;4.78;;
47856;SDS011;33618;49.972;8.242;2023-03-04T15:30:14;9.40;;;5.05;;
47856;SDS011;33618;49.972;8.242;2023-03-04T15:32:43;9.18;;;5.22;;
47856;SDS011;33618;49.972;8.242;2023-03-04T15:35:13;8.57;;;4.70;;
47856;SDS011;33618;49.972;8.242;2023-03-04T15:37:42;8.27;;;4.97;;
47856;SDS011;33618;49.972;8.242;2023-03-04T15:40:31;11.90;;;4.90;;
47856;SDS011;33618;49.972;8.242;2023-03-04T15:43:01;10.20;;;5.18;;
47856;SDS011;33618;49.972;8.242;2023-03-04T15:45:31;9.77;;;5.25;;
47856;SDS011;33618;49.972;8.242;2023-03-04T15:48:02;11.57;;;4.85;;
47856;SDS011;33618;49.972;8.242;2023-03-04T15:50:35;11.00;;;5.00;;
47856;SDS011;33618;49.972;8.242;2023-03-04T15:53:16;11.57;;;5.00;;
47856;SDS011;33618;49.972;8.242;2023-03-04T15:55:56;10.23;;;5.13;;
47856;SDS011;33618;49.972;8.242;2023-03-04T15:58:23;7.25;;;4.47;;
47856;SDS011;33618;49.972;8.242;2023-03-04T16:00:50;8.55;;;5.05;;
47856;SDS011;33618;49.972;8.242;2023-03-04T16:03:18;9.52;;;4.70;;
47856;SDS011;33618;49.972;8.242;2023-03-04T16:05:46;12.05;;;4.40;;
47856;SDS011;33618;49.972;8.242;2023-03-04T16:08:16;9.25;;;4.40;;
47856;SDS011;33618;49.972;8.242;2023-03-04T16:10:45;10.32;;;4.68;;
47856;SDS011;33618;49.972;8.242;2023-03-04T16:13:13;9.23;;;4.95;;
47856;SDS011;33618;49.972;8.242;2023-03-04T16:15:42;10.10;;;5.30;;
47856;SDS011;33618;49.972;8.242;2023-03-04T16:18:10;9.65;;;5.30;;
47856;SDS011;33618;49.972;8.242;2023-03-04T16:20:39;8.43;;;5.20;;
47856;SDS011;33618;49.972;8.242;2023-03-04T16:23:10;8.32;;;4.57;;
47856;SDS011;33618;49.972;8.242;2023-03-04T16:25:41;10.32;;;4.75;;
47856;SDS011;33618;49.972;8.242;2023-03-04T16:28:10;6.60;;;4.90;;
47856;SDS011;33618;49.972;8.242;2023-03-04T16:30:37;10.52;;;5.40;;
47856;SDS011;33618;49.972;8.242;2023-03-04T16:33:05;8.25;;;4.90;;
47856;SDS011;33618;49.972;8.242;2023-03-04T16:35:33;9.07;;;5.70;;
47856;SDS011;33618;49.972;8.242;2023-03-04T16:38:02;8.20;;;5.80;;
47856;SDS011;33618;49.972;8.242;2023-03-04T16:40:31;7.15;;;5.03;;
47856;SDS011;33618;49.972;8.242;2023-03-04T16:42:58;7.47;;;4.78;;
47856;SDS011;33618;49.972;8.242;2023-03-04T16:45:26;7.95;;;5.43;;
47856;SDS011;33618;49.972;8.242;2023-03-04T16:47:55;7.68;;;4.90;;
47856;SDS011;33618;49.972;8.242;2023-03-04T16:50:23;11.48;;;5.05;;